sensor_id;sensor_type;location;lat;lon;timestamp;P1;durP1;ratioP1;P2;durP2;ratioP2
43337;SDS011;28933;52.492;13.434;2023-07-20T00:00:35;4.78;;;2.70;;
43337;SDS011;28933;52.492;13.434;2023-07-20T00:03:21;6.63;;;2.95;;
43337;SDS011;28933;52.492;13.434;2023-07-20T00:06:10;5.03;;;2.58;;
43337;SDS011;28933;52.492;13.434;2023-07-20T00:08:56;5.20;;;3.17;;
43337;SDS011;28933;52.492;13.434;2023-07-20T00:11:48;8.00;;;2.60;;
43337;SDS011;28933;52.492;13.434;2023-07-20T00:14:38;4.13;;;2.73;;
43337;SDS011;28933;52.492;13.434;2023-07-20T00:17:24;4.63;;;2.58;;
43337;SDS011;28933;52.492;13.434;2023-07-20T00:20:10;4.95;;;2.65;;
43337;SDS011;28933;52.492;13.434;2023-07-20T00:22:56;5.20;;;2.63;;
43337;SDS011;28933;52.492;13.434;2023-07-20T00:25:43;4.40;;;2.50;;
43337;SDS011;28933;52.492;13.434;2023-07-20T00:28:29;4.35;;;2.70;;
43337;SDS011;28933;52.492;13.434;2023-07-20T00:31:15;7.18;;;2.88;;
43337;SDS011;28933;52.492;13.434;2023-07-20T00:34:01;4.57;;;2.38;;
43337;SDS011;28933;52.492;13.434;2023-07-20T00:36:47;3.75;;;2.42;;
43337;SDS011;28933;52.492;13.434;2023-07-20T00:39:34;4.65;;;2.63;;
43337;SDS011;28933;52.492;13.434;2023-07-20T00:42:20;6.47;;;3.20;;
43337;SDS011;28933;52.492;13.434;2023-07-20T00:45:06;3.75;;;2.80;;
43337;SDS011;28933;52.492;13.434;2023-07-20T00:47:52;3.10;;;2.30;;
43337;SDS011;28933;52.492;13.434;2023-07-20T00:50:38;6.57;;;2.90;;
43337;SDS011;28933;52.492;13.434;2023-07-20T00:53:25;6.57;;;2.80;;
43337;SDS011;28933;52.492;13.434;2023-07-20T00:56:12;4.35;;;2.50;;
43337;SDS011;28933;52.492;13.434;2023-07-20T00:58:58;3.72;;;2.50;;
43337;SDS011;28933;52.492;13.434;2023-07-20T01:01:44;4.40;;;3.10;;
43337;SDS011;28933;52.492;13.434;2023-07-20T01:04:30;3.65;;;2.78;;
43337;SDS011;28933;52.492;13.434;2023-07-20T01:07:32;4.03;;;2.75;;
43337;SDS011;28933;52.492;13.434;2023-07-20T01:10:32;4.38;;;2.53;;
43337;SDS011;28933;52.492;13.434;2023-07-20T01:13:19;3.85;;;2.92;;
43337;SDS011;28933;52.492;13.434;2023-07-20T01:16:06;6.22;;;3.25;;
43337;SDS011;28933;52.492;13.434;2023-07-20T01:18:52;4.22;;;3.00;;
43337;SDS011;28933;52.492;13.434;2023-07-20T01:21:41;4.32;;;2.83;;
43337;SDS011;28933;52.492;13.434;2023-07-20T01:28:03;5.90;;;3.23;;
43337;SDS011;28933;52.492;13.434;2023-07-20T01:33:44;3.92;;;2.53;;
43337;SDS011;28933;52.492;13.434;2023-07-20T01:36:33;5.88;;;2.95;;
43337;SDS011;28933;52.492;13.434;2023-07-20T01:39:20;4.50;;;2.92;;
43337;SDS011;28933;52.492;13.434;2023-07-20T01:42:07;4.38;;;2.60;;
43337;SDS011;28933;52.492;13.434;2023-07-20T01:44:54;4.45;;;3.13;;
43337;SDS011;28933;52.492;13.434;2023-07-20T01:47:40;7.03;;;3.10;;
43337;SDS011;28933;52.492;13.434;2023-07-20T01:50:26;6.28;;;2.92;;
43337;SDS011;28933;52.492;13.434;2023-07-20T01:53:12;5.10;;;2.90;;
43337;SDS011;28933;52.492;13.434;2023-07-20T01:55:58;4.72;;;2.63;;
43337;SDS011;28933;52.492;13.434;2023-07-20T01:58:44;3.90;;;2.88;;
43337;SDS011;28933;52.492;13.434;2023-07-20T02:01:30;3.65;;;2.50;;
43337;SDS011;28933;52.492;13.434;2023-07-20T02:04:16;5.43;;;3.00;;
43337;SDS011;28933;52.492;13.434;2023-07-20T02:07:02;5.18;;;2.85;;
43337;SDS011;28933;52.492;13.434;2023-07-20T02:09:48;4.88;;;2.70;;
43337;SDS011;28933;52.492;13.434;2023-07-20T02:12:35;5.20;;;3.30;;
43337;SDS011;28933;52.492;13.434;2023-07-20T02:15:21;5.13;;;4.03;;
43337;SDS011;28933;52.492;13.434;2023-07-20T02:18:07;5.25;;;3.50;;
43337;SDS011;28933;52.492;13.434;2023-07-20T02:20:53;4.43;;;3.03;;
43337;SDS011;28933;52.492;13.434;2023-07-20T02:23:39;5.82;;;3.67;;
43337;SDS011;28933;52.492;13.434;2023-07-20T02:26:25;7.90;;;4.05;;
43337;SDS011;28933;52.492;13.434;2023-07-20T02:29:11;5.03;;;3.33;;
43337;SDS011;28933;52.492;13.434;2023-07-20T02:31:57;11.38;;;4.22;;
43337;SDS011;28933;52.492;13.434;2023-07-20T02:34:43;4.90;;;3.67;;
43337;SDS011;28933;52.492;13.434;2023-07-20T02:37:29;7.57;;;3.45;;
43337;SDS011;28933;52.492;13.434;2023-07-20T02:40:15;7.45;;;4.03;;
43337;SDS011;28933;52.492;13.434;2023-07-20T02:43:01;6.47;;;4.00;;
43337;SDS011;28933;52.492;13.434;2023-07-20T02:45:48;7.57;;;4.35;;
43337;SDS011;28933;52.492;13.434;2023-07-20T02:48:35;4.75;;;3.85;;
43337;SDS011;28933;52.492;13.434;2023-07-20T02:51:21;7.28;;;4.03;;
43337;SDS011;28933;52.492;13.434;2023-07-20T02:54:07;5.47;;;4.32;;
43337;SDS011;28933;52.492;13.434;2023-07-20T02:56:53;8.55;;;4.40;;
43337;SDS011;28933;52.492;13.434;2023-07-20T02:59:39;6.97;;;4.43;;
43337;SDS011;28933;52.492;13.434;2023-07-20T03:02:25;6.03;;;4.00;;
43337;SDS011;28933;52.492;13.434;2023-07-20T03:05:11;5.32;;;4.35;;
43337;SDS011;28933;52.492;13.434;2023-07-20T03:07:57;8.73;;;4.78;;
43337;SDS011;28933;52.492;13.434;2023-07-20T03:10:48;6.65;;;5.20;;
43337;SDS011;28933;52.492;13.434;2023-07-20T03:13:34;8.82;;;5.63;;
43337;SDS011;28933;52.492;13.434;2023-07-20T03:16:20;7.97;;;5.80;;
43337;SDS011;28933;52.492;13.434;2023-07-20T03:19:07;9.18;;;6.07;;
43337;SDS011;28933;52.492;13.434;2023-07-20T03:21:52;8.00;;;5.50;;
43337;SDS011;28933;52.492;13.434;2023-07-20T03:24:38;8.90;;;5.95;;
43337;SDS011;28933;52.492;13.434;2023-07-20T03:27:24;7.88;;;5.75;;
43337;SDS011;28933;52.492;13.434;2023-07-20T03:30:10;7.43;;;5.75;;
43337;SDS011;28933;52.492;13.434;2023-07-20T03:32:57;7.75;;;5.60;;
43337;SDS011;28933;52.492;13.434;2023-07-20T03:35:42;7.65;;;5.38;;
43337;SDS011;28933;52.492;13.434;2023-07-20T03:38:28;8.65;;;5.53;;
43337;SDS011;28933;52.492;13.434;2023-07-20T03:41:14;7.20;;;5.20;;
43337;SDS011;28933;52.492;13.434;2023-07-20T03:44:01;6.95;;;5.53;;
43337;SDS011;28933;52.492;13.434;2023-07-20T03:46:47;7.93;;;5.97;;
43337;SDS011;28933;52.492;13.434;2023-07-20T03:49:33;9.32;;;6.82;;
43337;SDS011;28933;52.492;13.434;2023-07-20T03:52:19;8.35;;;6.70;;
43337;SDS011;28933;52.492;13.434;2023-07-20T03:55:05;7.80;;;6.93;;
43337;SDS011;28933;52.492;13.434;2023-07-20T03:57:51;11.02;;;8.93;;
43337;SDS011;28933;52.492;13.434;2023-07-20T04:00:37;11.38;;;7.63;;
43337;SDS011;28933;52.492;13.434;2023-07-20T04:03:23;9.85;;;7.25;;
43337;SDS011;28933;52.492;13.434;2023-07-20T04:06:11;8.77;;;6.07;;
43337;SDS011;28933;52.492;13.434;2023-07-20T04:08:59;7.60;;;6.07;;
43337;SDS011;28933;52.492;13.434;2023-07-20T04:11:45;7.00;;;5.28;;
43337;SDS011;28933;52.492;13.434;2023-07-20T04:14:31;6.40;;;4.97;;
43337;SDS011;28933;52.492;13.434;2023-07-20T04:17:17;5.78;;;4.43;;
43337;SDS011;28933;52.492;13.434;2023-07-20T04:20:03;7.28;;;5.43;;
43337;SDS011;28933;52.492;13.434;2023-07-20T04:22:51;6.50;;;4.47;;
43337;SDS011;28933;52.492;13.434;2023-07-20T04:25:38;6.72;;;4.20;;
43337;SDS011;28933;52.492;13.434;2023-07-20T04:28:25;5.88;;;4.22;;
43337;SDS011;28933;52.492;13.434;2023-07-20T04:31:14;10.63;;;5.45;;
43337;SDS011;28933;52.492;13.434;2023-07-20T04:34:01;6.28;;;4.45;;
43337;SDS011;28933;52.492;13.434;2023-07-20T04:36:47;7.18;;;4.82;;
43337;SDS011;28933;52.492;13.434;2023-07-20T04:39:33;7.68;;;4.80;;
43337;SDS011;28933;52.492;13.434;2023-07-20T04:42:19;5.88;;;4.22;;
43337;SDS011;28933;52.492;13.434;2023-07-20T04:45:05;4.95;;;4.38;;
43337;SDS011;28933;52.492;13.434;2023-07-20T04:47:52;7.20;;;5.25;;
43337;SDS011;28933;52.492;13.434;2023-07-20T04:50:38;5.97;;;4.72;;
43337;SDS011;28933;52.492;13.434;2023-07-20T04:53:26;8.73;;;4.80;;
43337;SDS011;28933;52.492;13.434;2023-07-20T04:56:12;5.57;;;4.53;;
43337;SDS011;28933;52.492;13.434;2023-07-20T04:58:58;5.28;;;4.32;;
43337;SDS011;28933;52.492;13.434;2023-07-20T05:01:44;6.90;;;4.38;;
43337;SDS011;28933;52.492;13.434;2023-07-20T05:04:30;6.43;;;4.22;;
43337;SDS011;28933;52.492;13.434;2023-07-20T05:07:16;5.80;;;4.78;;
43337;SDS011;28933;52.492;13.434;2023-07-20T05:10:02;7.13;;;4.68;;
43337;SDS011;28933;52.492;13.434;2023-07-20T05:12:48;8.55;;;5.03;;
43337;SDS011;28933;52.492;13.434;2023-07-20T05:15:34;5.82;;;4.78;;
43337;SDS011;28933;52.492;13.434;2023-07-20T05:18:20;6.20;;;4.47;;
43337;SDS011;28933;52.492;13.434;2023-07-20T05:21:06;4.72;;;3.75;;
43337;SDS011;28933;52.492;13.434;2023-07-20T05:23:53;5.85;;;4.10;;
43337;SDS011;28933;52.492;13.434;2023-07-20T05:26:39;5.22;;;3.60;;
43337;SDS011;28933;52.492;13.434;2023-07-20T05:29:25;5.40;;;3.95;;
43337;SDS011;28933;52.492;13.434;2023-07-20T05:32:11;5.13;;;3.92;;
43337;SDS011;28933;52.492;13.434;2023-07-20T05:34:58;4.93;;;3.15;;
43337;SDS011;28933;52.492;13.434;2023-07-20T05:37:44;9.27;;;4.57;;
43337;SDS011;28933;52.492;13.434;2023-07-20T05:40:30;4.38;;;3.30;;
43337;SDS011;28933;52.492;13.434;2023-07-20T05:43:16;5.15;;;3.03;;
43337;SDS011;28933;52.492;13.434;2023-07-20T05:46:02;6.30;;;3.17;;
43337;SDS011;28933;52.492;13.434;2023-07-20T05:48:49;5.72;;;3.60;;
43337;SDS011;28933;52.492;13.434;2023-07-20T05:51:35;4.22;;;2.80;;
43337;SDS011;28933;52.492;13.434;2023-07-20T05:54:21;5.53;;;2.97;;
43337;SDS011;28933;52.492;13.434;2023-07-20T05:57:09;4.30;;;2.80;;
43337;SDS011;28933;52.492;13.434;2023-07-20T05:59:55;8.32;;;4.28;;
43337;SDS011;28933;52.492;13.434;2023-07-20T06:02:41;4.38;;;3.10;;
43337;SDS011;28933;52.492;13.434;2023-07-20T06:05:29;6.03;;;3.72;;
43337;SDS011;28933;52.492;13.434;2023-07-20T06:08:15;18.63;;;4.13;;
43337;SDS011;28933;52.492;13.434;2023-07-20T06:11:01;6.35;;;3.20;;
43337;SDS011;28933;52.492;13.434;2023-07-20T06:13:47;9.43;;;4.32;;
43337;SDS011;28933;52.492;13.434;2023-07-20T06:16:33;7.50;;;3.67;;
43337;SDS011;28933;52.492;13.434;2023-07-20T06:19:19;11.05;;;4.88;;
43337;SDS011;28933;52.492;13.434;2023-07-20T06:22:05;10.50;;;4.03;;
43337;SDS011;28933;52.492;13.434;2023-07-20T06:24:51;11.52;;;3.80;;
43337;SDS011;28933;52.492;13.434;2023-07-20T06:27:37;8.18;;;4.50;;
43337;SDS011;28933;52.492;13.434;2023-07-20T06:30:23;8.90;;;4.05;;
43337;SDS011;28933;52.492;13.434;2023-07-20T06:33:09;5.10;;;3.88;;
43337;SDS011;28933;52.492;13.434;2023-07-20T06:35:55;5.70;;;3.88;;
43337;SDS011;28933;52.492;13.434;2023-07-20T06:38:42;7.80;;;4.20;;
43337;SDS011;28933;52.492;13.434;2023-07-20T06:41:28;5.30;;;3.85;;
43337;SDS011;28933;52.492;13.434;2023-07-20T06:44:14;5.72;;;3.65;;
43337;SDS011;28933;52.492;13.434;2023-07-20T06:47:00;6.45;;;3.70;;
43337;SDS011;28933;52.492;13.434;2023-07-20T06:49:46;5.28;;;3.20;;
43337;SDS011;28933;52.492;13.434;2023-07-20T06:52:32;5.40;;;3.03;;
43337;SDS011;28933;52.492;13.434;2023-07-20T06:55:18;4.13;;;3.05;;
43337;SDS011;28933;52.492;13.434;2023-07-20T06:58:04;10.68;;;2.97;;
43337;SDS011;28933;52.492;13.434;2023-07-20T07:00:50;5.20;;;2.63;;
43337;SDS011;28933;52.492;13.434;2023-07-20T07:03:36;3.13;;;2.08;;
43337;SDS011;28933;52.492;13.434;2023-07-20T07:06:22;5.53;;;2.40;;
43337;SDS011;28933;52.492;13.434;2023-07-20T07:09:08;5.72;;;2.28;;
43337;SDS011;28933;52.492;13.434;2023-07-20T07:11:54;7.65;;;2.03;;
43337;SDS011;28933;52.492;13.434;2023-07-20T07:14:40;2.05;;;1.60;;
43337;SDS011;28933;52.492;13.434;2023-07-20T07:17:26;1.67;;;1.33;;
43337;SDS011;28933;52.492;13.434;2023-07-20T07:20:12;2.95;;;2.03;;
43337;SDS011;28933;52.492;13.434;2023-07-20T07:22:58;3.22;;;1.83;;
43337;SDS011;28933;52.492;13.434;2023-07-20T07:25:44;1.98;;;1.35;;
43337;SDS011;28933;52.492;13.434;2023-07-20T07:28:30;5.10;;;2.10;;
43337;SDS011;28933;52.492;13.434;2023-07-20T07:31:17;4.95;;;1.73;;
43337;SDS011;28933;52.492;13.434;2023-07-20T07:34:03;2.95;;;1.40;;
43337;SDS011;28933;52.492;13.434;2023-07-20T07:36:49;2.05;;;1.55;;
43337;SDS011;28933;52.492;13.434;2023-07-20T07:39:36;2.70;;;1.48;;
43337;SDS011;28933;52.492;13.434;2023-07-20T07:42:22;2.42;;;1.00;;
43337;SDS011;28933;52.492;13.434;2023-07-20T07:45:08;2.22;;;1.48;;
43337;SDS011;28933;52.492;13.434;2023-07-20T07:47:54;2.45;;;1.10;;
43337;SDS011;28933;52.492;13.434;2023-07-20T07:50:40;2.20;;;1.25;;
43337;SDS011;28933;52.492;13.434;2023-07-20T07:53:26;1.83;;;1.25;;
43337;SDS011;28933;52.492;13.434;2023-07-20T07:56:12;1.27;;;1.10;;
43337;SDS011;28933;52.492;13.434;2023-07-20T07:58:58;2.38;;;1.15;;
43337;SDS011;28933;52.492;13.434;2023-07-20T08:01:43;2.90;;;1.65;;
43337;SDS011;28933;52.492;13.434;2023-07-20T08:04:30;2.65;;;1.30;;
43337;SDS011;28933;52.492;13.434;2023-07-20T08:09:51;2.13;;;1.15;;
43337;SDS011;28933;52.492;13.434;2023-07-20T08:12:37;1.25;;;1.13;;
43337;SDS011;28933;52.492;13.434;2023-07-20T08:15:23;1.55;;;1.13;;
43337;SDS011;28933;52.492;13.434;2023-07-20T08:18:09;1.05;;;0.93;;
43337;SDS011;28933;52.492;13.434;2023-07-20T08:20:55;1.20;;;1.10;;
43337;SDS011;28933;52.492;13.434;2023-07-20T08:23:41;1.08;;;0.90;;
43337;SDS011;28933;52.492;13.434;2023-07-20T08:26:27;3.42;;;1.60;;
43337;SDS011;28933;52.492;13.434;2023-07-20T08:29:13;1.35;;;1.13;;
43337;SDS011;28933;52.492;13.434;2023-07-20T08:31:59;1.33;;;1.00;;
43337;SDS011;28933;52.492;13.434;2023-07-20T08:34:45;2.05;;;1.13;;
43337;SDS011;28933;52.492;13.434;2023-07-20T08:37:31;1.95;;;1.10;;
43337;SDS011;28933;52.492;13.434;2023-07-20T08:40:17;4.25;;;1.30;;
43337;SDS011;28933;52.492;13.434;2023-07-20T08:43:03;1.63;;;1.38;;
43337;SDS011;28933;52.492;13.434;2023-07-20T08:45:49;1.88;;;1.13;;
43337;SDS011;28933;52.492;13.434;2023-07-20T08:48:37;4.22;;;1.00;;
43337;SDS011;28933;52.492;13.434;2023-07-20T08:51:23;0.85;;;0.70;;
43337;SDS011;28933;52.492;13.434;2023-07-20T08:54:11;2.15;;;0.88;;
43337;SDS011;28933;52.492;13.434;2023-07-20T08:57:00;1.10;;;0.93;;
43337;SDS011;28933;52.492;13.434;2023-07-20T08:59:48;3.70;;;1.23;;
43337;SDS011;28933;52.492;13.434;2023-07-20T09:02:35;2.58;;;1.40;;
43337;SDS011;28933;52.492;13.434;2023-07-20T09:05:28;1.85;;;1.13;;
43337;SDS011;28933;52.492;13.434;2023-07-20T09:08:14;7.05;;;1.70;;
43337;SDS011;28933;52.492;13.434;2023-07-20T09:10:59;7.00;;;2.28;;
43337;SDS011;28933;52.492;13.434;2023-07-20T09:13:45;3.38;;;1.25;;
43337;SDS011;28933;52.492;13.434;2023-07-20T09:16:32;2.10;;;1.10;;
43337;SDS011;28933;52.492;13.434;2023-07-20T09:19:18;1.80;;;0.95;;
43337;SDS011;28933;52.492;13.434;2023-07-20T09:22:05;1.25;;;1.00;;
43337;SDS011;28933;52.492;13.434;2023-07-20T09:24:51;0.80;;;0.80;;
43337;SDS011;28933;52.492;13.434;2023-07-20T09:27:38;1.10;;;0.93;;
43337;SDS011;28933;52.492;13.434;2023-07-20T09:30:25;1.27;;;0.80;;
43337;SDS011;28933;52.492;13.434;2023-07-20T09:33:18;1.52;;;0.75;;
43337;SDS011;28933;52.492;13.434;2023-07-20T09:36:05;1.02;;;0.93;;
43337;SDS011;28933;52.492;13.434;2023-07-20T09:38:51;1.52;;;0.90;;
43337;SDS011;28933;52.492;13.434;2023-07-20T09:41:40;1.92;;;1.02;;
43337;SDS011;28933;52.492;13.434;2023-07-20T09:44:27;1.20;;;1.00;;
43337;SDS011;28933;52.492;13.434;2023-07-20T09:47:14;6.65;;;1.17;;
43337;SDS011;28933;52.492;13.434;2023-07-20T09:50:08;1.25;;;0.77;;
43337;SDS011;28933;52.492;13.434;2023-07-20T09:52:56;1.13;;;0.93;;
43337;SDS011;28933;52.492;13.434;2023-07-20T09:55:43;0.70;;;0.70;;
43337;SDS011;28933;52.492;13.434;2023-07-20T09:58:30;0.63;;;0.63;;
43337;SDS011;28933;52.492;13.434;2023-07-20T10:01:19;0.93;;;0.63;;
43337;SDS011;28933;52.492;13.434;2023-07-20T10:04:07;1.30;;;1.00;;
43337;SDS011;28933;52.492;13.434;2023-07-20T10:06:56;4.40;;;1.23;;
43337;SDS011;28933;52.492;13.434;2023-07-20T10:09:47;3.65;;;1.10;;
43337;SDS011;28933;52.492;13.434;2023-07-20T10:12:34;8.20;;;1.70;;
43337;SDS011;28933;52.492;13.434;2023-07-20T10:15:24;4.43;;;1.17;;
43337;SDS011;28933;52.492;13.434;2023-07-20T10:18:29;4.05;;;1.38;;
43337;SDS011;28933;52.492;13.434;2023-07-20T10:21:20;2.80;;;1.35;;
43337;SDS011;28933;52.492;13.434;2023-07-20T10:24:08;1.42;;;0.82;;
43337;SDS011;28933;52.492;13.434;2023-07-20T10:26:57;1.52;;;1.13;;
43337;SDS011;28933;52.492;13.434;2023-07-20T10:29:43;1.65;;;0.90;;
43337;SDS011;28933;52.492;13.434;2023-07-20T10:32:29;1.08;;;0.98;;
43337;SDS011;28933;52.492;13.434;2023-07-20T10:35:16;1.80;;;1.10;;
43337;SDS011;28933;52.492;13.434;2023-07-20T10:38:03;2.28;;;1.08;;
43337;SDS011;28933;52.492;13.434;2023-07-20T10:40:55;1.85;;;1.42;;
43337;SDS011;28933;52.492;13.434;2023-07-20T10:43:42;6.38;;;1.00;;
43337;SDS011;28933;52.492;13.434;2023-07-20T10:49:20;1.60;;;1.13;;
43337;SDS011;28933;52.492;13.434;2023-07-20T10:52:11;1.98;;;1.00;;
43337;SDS011;28933;52.492;13.434;2023-07-20T10:54:59;3.17;;;1.10;;
43337;SDS011;28933;52.492;13.434;2023-07-20T10:58:06;1.70;;;1.33;;
43337;SDS011;28933;52.492;13.434;2023-07-20T11:01:01;1.83;;;1.00;;
43337;SDS011;28933;52.492;13.434;2023-07-20T11:03:49;1.05;;;0.75;;
43337;SDS011;28933;52.492;13.434;2023-07-20T11:06:36;1.60;;;0.90;;
43337;SDS011;28933;52.492;13.434;2023-07-20T11:09:23;2.10;;;1.33;;
43337;SDS011;28933;52.492;13.434;2023-07-20T11:14:59;3.67;;;1.80;;
43337;SDS011;28933;52.492;13.434;2023-07-20T11:17:45;16.65;;;14.90;;
43337;SDS011;28933;52.492;13.434;2023-07-20T11:20:31;8.63;;;6.97;;
43337;SDS011;28933;52.492;13.434;2023-07-20T11:23:17;4.07;;;2.28;;
43337;SDS011;28933;52.492;13.434;2023-07-20T11:26:03;2.80;;;1.58;;
43337;SDS011;28933;52.492;13.434;2023-07-20T11:28:49;3.78;;;1.52;;
43337;SDS011;28933;52.492;13.434;2023-07-20T11:31:37;1.23;;;1.10;;
43337;SDS011;28933;52.492;13.434;2023-07-20T11:34:29;2.47;;;1.10;;
43337;SDS011;28933;52.492;13.434;2023-07-20T11:37:16;1.70;;;1.00;;
43337;SDS011;28933;52.492;13.434;2023-07-20T11:40:03;1.13;;;0.85;;
43337;SDS011;28933;52.492;13.434;2023-07-20T11:42:50;2.00;;;1.20;;
43337;SDS011;28933;52.492;13.434;2023-07-20T11:45:37;4.38;;;1.20;;
43337;SDS011;28933;52.492;13.434;2023-07-20T11:48:24;1.58;;;1.00;;
43337;SDS011;28933;52.492;13.434;2023-07-20T11:51:13;2.17;;;1.10;;
43337;SDS011;28933;52.492;13.434;2023-07-20T11:54:00;1.63;;;1.00;;
43337;SDS011;28933;52.492;13.434;2023-07-20T11:56:47;0.90;;;0.65;;
43337;SDS011;28933;52.492;13.434;2023-07-20T11:59:33;1.05;;;0.65;;
43337;SDS011;28933;52.492;13.434;2023-07-20T12:02:19;1.17;;;0.70;;
43337;SDS011;28933;52.492;13.434;2023-07-20T12:05:05;0.88;;;0.68;;
43337;SDS011;28933;52.492;13.434;2023-07-20T12:07:52;0.80;;;0.80;;
43337;SDS011;28933;52.492;13.434;2023-07-20T12:10:39;3.47;;;0.95;;
43337;SDS011;28933;52.492;13.434;2023-07-20T12:13:39;1.55;;;0.80;;
43337;SDS011;28933;52.492;13.434;2023-07-20T12:16:28;2.85;;;1.05;;
43337;SDS011;28933;52.492;13.434;2023-07-20T12:19:15;0.80;;;0.77;;
43337;SDS011;28933;52.492;13.434;2023-07-20T12:22:01;4.82;;;1.00;;
43337;SDS011;28933;52.492;13.434;2023-07-20T12:24:47;2.67;;;0.73;;
43337;SDS011;28933;52.492;13.434;2023-07-20T12:27:38;0.88;;;0.70;;
43337;SDS011;28933;52.492;13.434;2023-07-20T12:30:24;2.13;;;0.95;;
43337;SDS011;28933;52.492;13.434;2023-07-20T12:33:10;4.72;;;1.10;;
43337;SDS011;28933;52.492;13.434;2023-07-20T12:35:57;3.17;;;1.60;;
43337;SDS011;28933;52.492;13.434;2023-07-20T12:38:46;2.40;;;0.85;;
43337;SDS011;28933;52.492;13.434;2023-07-20T12:41:32;0.82;;;0.63;;
43337;SDS011;28933;52.492;13.434;2023-07-20T12:44:18;2.13;;;0.93;;
43337;SDS011;28933;52.492;13.434;2023-07-20T12:47:04;1.92;;;1.00;;
43337;SDS011;28933;52.492;13.434;2023-07-20T12:49:50;1.02;;;0.52;;
43337;SDS011;28933;52.492;13.434;2023-07-20T12:52:36;1.50;;;0.68;;
43337;SDS011;28933;52.492;13.434;2023-07-20T12:55:23;6.38;;;1.15;;
43337;SDS011;28933;52.492;13.434;2023-07-20T12:58:09;0.88;;;0.88;;
43337;SDS011;28933;52.492;13.434;2023-07-20T13:00:56;0.55;;;0.55;;
43337;SDS011;28933;52.492;13.434;2023-07-20T13:03:42;1.10;;;0.70;;
43337;SDS011;28933;52.492;13.434;2023-07-20T13:06:28;0.93;;;0.80;;
43337;SDS011;28933;52.492;13.434;2023-07-20T13:09:14;1.13;;;0.70;;
43337;SDS011;28933;52.492;13.434;2023-07-20T13:12:00;0.75;;;0.65;;
43337;SDS011;28933;52.492;13.434;2023-07-20T13:14:46;4.00;;;1.20;;
43337;SDS011;28933;52.492;13.434;2023-07-20T13:17:33;0.93;;;0.68;;
43337;SDS011;28933;52.492;13.434;2023-07-20T13:20:19;3.13;;;0.98;;
43337;SDS011;28933;52.492;13.434;2023-07-20T13:23:05;0.73;;;0.60;;
43337;SDS011;28933;52.492;13.434;2023-07-20T13:25:51;4.90;;;0.82;;
43337;SDS011;28933;52.492;13.434;2023-07-20T13:28:37;0.88;;;0.57;;
43337;SDS011;28933;52.492;13.434;2023-07-20T13:31:23;0.70;;;0.60;;
43337;SDS011;28933;52.492;13.434;2023-07-20T13:34:09;0.98;;;0.73;;
43337;SDS011;28933;52.492;13.434;2023-07-20T13:36:55;2.03;;;0.52;;
43337;SDS011;28933;52.492;13.434;2023-07-20T13:39:41;1.55;;;0.52;;
43337;SDS011;28933;52.492;13.434;2023-07-20T13:42:27;1.67;;;0.80;;
43337;SDS011;28933;52.492;13.434;2023-07-20T13:45:13;1.20;;;0.73;;
43337;SDS011;28933;52.492;13.434;2023-07-20T13:47:59;0.60;;;0.55;;
43337;SDS011;28933;52.492;13.434;2023-07-20T13:50:45;2.40;;;0.82;;
43337;SDS011;28933;52.492;13.434;2023-07-20T13:53:31;1.20;;;0.82;;
43337;SDS011;28933;52.492;13.434;2023-07-20T13:56:17;1.48;;;0.93;;
43337;SDS011;28933;52.492;13.434;2023-07-20T13:59:03;3.35;;;0.90;;
43337;SDS011;28933;52.492;13.434;2023-07-20T14:01:49;1.65;;;0.82;;
43337;SDS011;28933;52.492;13.434;2023-07-20T14:04:35;5.28;;;0.63;;
43337;SDS011;28933;52.492;13.434;2023-07-20T14:07:22;4.68;;;0.90;;
43337;SDS011;28933;52.492;13.434;2023-07-20T14:10:08;1.95;;;0.80;;
43337;SDS011;28933;52.492;13.434;2023-07-20T14:12:54;1.52;;;1.00;;
43337;SDS011;28933;52.492;13.434;2023-07-20T14:15:40;2.50;;;1.17;;
43337;SDS011;28933;52.492;13.434;2023-07-20T14:18:26;1.58;;;0.63;;
43337;SDS011;28933;52.492;13.434;2023-07-20T14:21:12;5.80;;;0.90;;
43337;SDS011;28933;52.492;13.434;2023-07-20T14:23:58;0.70;;;0.60;;
43337;SDS011;28933;52.492;13.434;2023-07-20T14:26:44;2.67;;;0.70;;
43337;SDS011;28933;52.492;13.434;2023-07-20T14:29:30;0.85;;;0.60;;
43337;SDS011;28933;52.492;13.434;2023-07-20T14:32:16;0.70;;;0.70;;
43337;SDS011;28933;52.492;13.434;2023-07-20T14:35:02;2.05;;;0.98;;
43337;SDS011;28933;52.492;13.434;2023-07-20T14:37:49;2.95;;;1.65;;
43337;SDS011;28933;52.492;13.434;2023-07-20T14:40:35;1.63;;;0.90;;
43337;SDS011;28933;52.492;13.434;2023-07-20T14:43:21;9.20;;;1.65;;
43337;SDS011;28933;52.492;13.434;2023-07-20T14:46:07;6.22;;;1.25;;
43337;SDS011;28933;52.492;13.434;2023-07-20T14:48:53;2.15;;;1.02;;
43337;SDS011;28933;52.492;13.434;2023-07-20T14:51:39;5.47;;;0.98;;
43337;SDS011;28933;52.492;13.434;2023-07-20T14:54:28;2.83;;;0.82;;
43337;SDS011;28933;52.492;13.434;2023-07-20T14:57:14;3.10;;;1.05;;
43337;SDS011;28933;52.492;13.434;2023-07-20T15:00:01;1.58;;;0.90;;
43337;SDS011;28933;52.492;13.434;2023-07-20T15:02:52;1.52;;;1.02;;
43337;SDS011;28933;52.492;13.434;2023-07-20T15:05:41;1.23;;;0.60;;
43337;SDS011;28933;52.492;13.434;2023-07-20T15:08:28;2.17;;;0.82;;
43337;SDS011;28933;52.492;13.434;2023-07-20T15:11:13;1.88;;;0.93;;
43337;SDS011;28933;52.492;13.434;2023-07-20T15:13:59;8.80;;;0.90;;
43337;SDS011;28933;52.492;13.434;2023-07-20T15:16:46;5.82;;;1.00;;
43337;SDS011;28933;52.492;13.434;2023-07-20T15:19:31;2.03;;;1.35;;
43337;SDS011;28933;52.492;13.434;2023-07-20T15:22:19;3.03;;;1.00;;
43337;SDS011;28933;52.492;13.434;2023-07-20T15:25:07;1.58;;;0.93;;
43337;SDS011;28933;52.492;13.434;2023-07-20T15:27:56;1.95;;;1.10;;
43337;SDS011;28933;52.492;13.434;2023-07-20T15:30:41;2.78;;;1.02;;
43337;SDS011;28933;52.492;13.434;2023-07-20T15:33:27;1.08;;;0.88;;
43337;SDS011;28933;52.492;13.434;2023-07-20T15:36:13;1.17;;;0.88;;
43337;SDS011;28933;52.492;13.434;2023-07-20T15:38:59;1.67;;;1.17;;
43337;SDS011;28933;52.492;13.434;2023-07-20T15:41:47;1.02;;;0.95;;
43337;SDS011;28933;52.492;13.434;2023-07-20T15:44:33;11.25;;;2.05;;
43337;SDS011;28933;52.492;13.434;2023-07-20T15:47:19;3.70;;;1.48;;
43337;SDS011;28933;52.492;13.434;2023-07-20T15:50:05;3.15;;;1.33;;
43337;SDS011;28933;52.492;13.434;2023-07-20T15:52:52;1.90;;;1.27;;
43337;SDS011;28933;52.492;13.434;2023-07-20T15:55:38;4.68;;;1.20;;
43337;SDS011;28933;52.492;13.434;2023-07-20T15:58:24;1.15;;;0.90;;
43337;SDS011;28933;52.492;13.434;2023-07-20T16:01:09;1.70;;;0.93;;
43337;SDS011;28933;52.492;13.434;2023-07-20T16:03:55;1.55;;;1.05;;
43337;SDS011;28933;52.492;13.434;2023-07-20T16:06:42;2.15;;;0.88;;
43337;SDS011;28933;52.492;13.434;2023-07-20T16:09:28;1.58;;;1.00;;
43337;SDS011;28933;52.492;13.434;2023-07-20T16:12:14;2.45;;;1.00;;
43337;SDS011;28933;52.492;13.434;2023-07-20T16:15:00;4.68;;;1.13;;
43337;SDS011;28933;52.492;13.434;2023-07-20T16:17:46;2.67;;;0.90;;
43337;SDS011;28933;52.492;13.434;2023-07-20T16:20:32;2.30;;;0.73;;
43337;SDS011;28933;52.492;13.434;2023-07-20T16:23:18;1.55;;;1.10;;
43337;SDS011;28933;52.492;13.434;2023-07-20T16:26:04;2.10;;;1.45;;
43337;SDS011;28933;52.492;13.434;2023-07-20T16:28:50;1.83;;;1.33;;
43337;SDS011;28933;52.492;13.434;2023-07-20T16:31:36;3.42;;;1.10;;
43337;SDS011;28933;52.492;13.434;2023-07-20T16:34:22;2.05;;;1.30;;
43337;SDS011;28933;52.492;13.434;2023-07-20T16:37:08;1.60;;;1.15;;
43337;SDS011;28933;52.492;13.434;2023-07-20T16:39:55;2.30;;;1.27;;
43337;SDS011;28933;52.492;13.434;2023-07-20T16:42:41;2.17;;;1.45;;